Time;durP1;ratioP1;P1;durP2;ratioP2;P2;SDS_P1;SDS_P2;PMS_P1;PMS_P2;Temp;Humidity;BMP_temperature;BMP_pressure;BME280_temperature;BME280_humidity;BME280_pressure;Samples;Min_cycle;Max_cycle;Signal;HPM_P1;HPM_P2
2021/12/15 00:02:16;;;;;;;;;;;;;;;5.06;95.83;97743.28;4995468;28;20327;-78
2021/12/15 00:04:43;;;;;;;;;;;;;;;5.08;95.81;97750.91;4994975;28;19978;-77
2021/12/15 00:07:09;;;;;;;;;;;;;;;5.07;95.82;97738.88;4995204;28;19963;-75
2021/12/15 00:09:35;;;;;;;;;;;;;;;5.08;95.81;97737.91;4995420;28;19956;-76
2021/12/15 00:12:04;;;;;;;;;;;;;;;5.09;95.79;97747.34;4995056;28;19998;-75
2021/12/15 00:14:31;;;;;;;;;;;;;;;5.08;95.76;97743.94;4995221;28;19953;-74
2021/12/15 00:16:57;;;;;;;;;;;;;;;5.09;95.59;97744.75;4994914;28;19962;-77
2021/12/15 00:19:23;;;;;;;;;;;;;;;5.08;95.60;97735.31;4995448;28;20356;-75
2021/12/15 00:21:49;;;;;;;;;;;;;;;5.06;95.40;97745.03;4994900;28;19963;-74
2021/12/15 00:24:14;;;;;;;;;;;;;;;5.03;95.75;97746.16;4995176;28;20399;-75
2021/12/15 00:26:40;;;;;;;;;;;;;;;5.01;95.83;97740.31;4995093;28;20051;-76
2021/12/15 00:29:06;;;;;;;;;;;;;;;5.01;96.12;97742.09;4994654;28;20357;-77
2021/12/15 00:31:33;;;;;;;;;;;;;;;5.02;96.03;97741.94;4994744;28;20329;-76
2021/12/15 00:34:00;;;;;;;;;;;;;;;5.03;95.89;97747.97;4994832;28;20329;-76
2021/12/15 00:36:26;;;;;;;;;;;;;;;5.03;95.76;97742.75;4994746;28;20319;-77
2021/12/15 00:38:52;;;;;;;;;;;;;;;5.04;95.66;97747.81;4994889;28;19962;-75
2021/12/15 00:41:18;;;;;;;;;;;;;;;5.04;95.73;97746.97;4977326;28;19965;-76
2021/12/15 00:43:44;;;;;;;;;;;;;;;5.06;95.56;97748.47;4994684;28;19968;-77
2021/12/15 00:46:10;;;;;;;;;;;;;;;5.05;95.69;97749.44;4977234;28;19963;-77
2021/12/15 00:48:36;;;;;;;;;;;;;;;5.03;95.69;97748.75;4977206;28;20419;-76
2021/12/15 00:51:02;;;;;;;;;;;;;;;5.02;95.58;97746.34;4994477;28;19956;-74
2021/12/15 00:53:28;;;;;;;;;;;;;;;5.00;95.65;97743.88;4994552;28;19960;-73
2021/12/15 00:55:54;;;;;;;;;;;;;;;4.99;95.68;97750.03;4994509;28;20033;-74
2021/12/15 00:58:20;;;;;;;;;;;;;;;4.98;95.58;97750.22;4994498;28;20011;-74
2021/12/15 01:00:49;;;;;;;;;;;;;;;4.95;95.72;97753.91;4994827;28;20365;-74
2021/12/15 01:03:15;;;;;;;;;;;;;;;4.95;96.03;97753.91;4994956;28;19976;-77
2021/12/15 01:05:43;;;;;;;;;;;;;;;4.93;96.00;97747.22;4994312;28;20474;-75
2021/12/15 01:08:11;;;;;;;;;;;;;;;4.88;95.93;97753.69;4994357;28;19957;-74
2021/12/15 01:11:27;;;;;;;;;;;;;;;4.82;96.41;97753.47;4993902;28;19962;-74
2021/12/15 01:21:52;;;;;;;;;;;;;;;4.78;97.21;97752.13;4956698;28;19977;-78
2021/12/15 01:24:18;;;;;;;;;;;;;;;4.80;97.33;97758.81;4994047;28;19959;-76
2021/12/15 01:26:44;;;;;;;;;;;;;;;4.82;97.33;97754.28;4992839;28;20319;-74
2021/12/15 01:29:10;;;;;;;;;;;;;;;4.84;97.18;97754.94;4994099;28;20041;-74
2021/12/15 01:31:36;;;;;;;;;;;;;;;4.87;96.90;97756.44;4994094;28;20043;-76
2021/12/15 01:34:03;;;;;;;;;;;;;;;4.89;96.94;97757.09;4993973;28;19965;-79
2021/12/15 01:36:29;;;;;;;;;;;;;;;4.89;96.71;97754.50;4994327;28;19954;-76
2021/12/15 01:38:55;;;;;;;;;;;;;;;4.90;96.71;97750.94;4993840;28;19958;-74
2021/12/15 01:41:23;;;;;;;;;;;;;;;4.92;96.49;97758.59;4994135;28;19944;-76
2021/12/15 01:46:56;;;;;;;;;;;;;;;4.88;95.26;97769.28;4993956;28;19968;-75
2021/12/15 01:49:42;;;;;;;;;;;;;;;4.90;96.02;97768.34;4993864;28;20439;-76
2021/12/15 01:52:20;;;;;;;;;;;;;;;4.91;96.32;97762.97;4993433;28;20303;-76
2021/12/15 01:54:48;;;;;;;;;;;;;;;4.91;96.38;97772.56;4993708;28;19952;-77
2021/12/15 01:57:15;;;;;;;;;;;;;;;4.90;96.53;97776.13;4993933;28;19981;-76
2021/12/15 01:59:42;;;;;;;;;;;;;;;4.90;96.45;97776.13;4993567;28;19952;-76
2021/12/15 02:02:08;;;;;;;;;;;;;;;4.92;96.63;97776.78;4993972;28;19961;-75
2021/12/15 02:04:34;;;;;;;;;;;;;;;4.92;96.13;97776.78;4993624;28;19968;-75
2021/12/15 02:07:00;;;;;;;;;;;;;;;4.88;95.91;97773.66;4993502;28;19956;-76
2021/12/15 02:10:01;;;;;;;;;;;;;;;4.88;95.85;97768.47;4993712;28;20407;-76
2021/12/15 02:12:12;;;;;;;;;;;;;;;4.91;96.24;97773.34;4981009;28;20331;-76
2021/12/15 02:14:38;;;;;;;;;;;;;;;4.94;96.33;97773.06;4976330;28;19961;-77
2021/12/15 02:17:04;;;;;;;;;;;;;;;4.96;96.09;97765.13;4993618;28;20399;-76
2021/12/15 02:19:30;;;;;;;;;;;;;;;4.97;96.08;97770.16;4993625;28;19980;-77
2021/12/15 02:21:58;;;;;;;;;;;;;;;5.00;95.93;97771.69;4976018;28;20477;-76
2021/12/15 02:24:24;;;;;;;;;;;;;;;5.02;95.94;97769.75;4976180;28;20441;-76
2021/12/15 02:26:57;;;;;;;;;;;;;;;5.03;95.81;97769.56;4993455;28;19952;-76
2021/12/15 02:29:24;;;;;;;;;;;;;;;5.02;95.66;97774.94;4996667;28;19961;-77
2021/12/15 02:31:58;;;;;;;;;;;;;;;5.00;95.51;97769.88;4997404;28;20452;-76
2021/12/15 02:37:15;;;;;;;;;;;;;;;5.01;95.06;97774.09;4979779;28;19953;-76
2021/12/15 02:39:53;;;;;;;;;;;;;;;5.02;95.00;97775.75;4996870;28;19958;-76
2021/12/15 02:42:20;;;;;;;;;;;;;;;5.03;95.00;97774.75;4996912;28;19956;-75
2021/12/15 02:44:46;;;;;;;;;;;;;;;5.04;94.83;97770.38;4996725;28;19954;-76
2021/12/15 02:47:14;;;;;;;;;;;;;;;5.04;94.71;97768.63;4997435;28;19960;-75
2021/12/15 02:49:40;;;;;;;;;;;;;;;5.05;94.67;97766.81;4996736;28;20092;-75
2021/12/15 02:52:06;;;;;;;;;;;;;;;5.04;94.62;97767.78;4997009;28;20349;-75
2021/12/15 02:54:32;;;;;;;;;;;;;;;5.05;94.40;97770.22;4996836;28;19959;-75
2021/12/15 02:57:05;;;;;;;;;;;;;;;5.05;94.23;97766.81;4996638;28;19960;-75
2021/12/15 02:59:41;;;;;;;;;;;;;;;5.03;92.44;97772.16;4979162;28;20415;-76
2021/12/15 03:02:28;;;;;;;;;;;;;;;5.00;93.26;97767.28;4988385;28;19957;-75
2021/12/15 03:05:06;;;;;;;;;;;;;;;5.00;93.45;97764.69;4996687;28;19955;-75
2021/12/15 03:07:41;;;;;;;;;;;;;;;5.01;93.45;97771.50;4985904;28;19963;-75
2021/12/15 03:15:39;;;;;;;;;;;;;;;5.01;93.59;97768.91;4996307;28;19961;-75
2021/12/15 03:18:05;;;;;;;;;;;;;;;5.01;93.83;97774.09;4996458;28;19979;-75
2021/12/15 03:20:33;;;;;;;;;;;;;;;5.02;93.78;97772.34;4996222;28;20320;-76
2021/12/15 03:23:00;;;;;;;;;;;;;;;5.02;93.96;97769.75;4996174;28;20338;-76
2021/12/15 03:25:29;;;;;;;;;;;;;;;5.00;92.84;97774.28;4995946;28;19958;-75
2021/12/15 03:36:06;;;;;;;;;;;;;;;4.80;92.15;97774.41;4996089;28;20025;-74
2021/12/15 03:38:33;;;;;;;;;;;;;;;4.80;92.08;97769.22;4996128;28;19961;-74
2021/12/15 03:41:00;;;;;;;;;;;;;;;4.74;90.93;97785.38;4994955;28;20330;-74
2021/12/15 03:43:26;;;;;;;;;;;;;;;4.67;92.01;97787.75;4995909;28;20337;-74
2021/12/15 03:45:57;;;;;;;;;;;;;;;4.65;93.13;97786.28;4995854;28;19980;-74
2021/12/15 03:48:26;;;;;;;;;;;;;;;4.68;93.42;97789.41;4995952;28;19957;-75
2021/12/15 03:50:53;;;;;;;;;;;;;;;4.71;93.77;97787.47;4996023;28;20466;-74
2021/12/15 03:53:19;;;;;;;;;;;;;;;4.74;93.44;97787.97;4995525;28;19964;-74
2021/12/15 03:55:45;;;;;;;;;;;;;;;4.78;93.54;97789.31;4995885;28;19966;-74
2021/12/15 03:58:13;;;;;;;;;;;;;;;4.82;93.22;97789.84;4995750;28;20432;-74
2021/12/15 04:00:42;;;;;;;;;;;;;;;4.83;93.11;97784.53;4995580;28;19955;-78
2021/12/15 04:03:17;;;;;;;;;;;;;;;4.85;92.62;97787.78;4995420;28;19966;-74
2021/12/15 04:05:43;;;;;;;;;;;;;;;4.84;91.55;97785.31;4995293;28;19955;-75
2021/12/15 04:08:09;;;;;;;;;;;;;;;4.74;91.40;97781.97;4995466;28;19959;-76
2021/12/15 04:10:38;;;;;;;;;;;;;;;4.66;91.87;97788.75;4995443;28;20052;-76
2021/12/15 04:13:04;;;;;;;;;;;;;;;4.61;92.57;97792.75;4995265;28;19958;-77
2021/12/15 04:15:40;;;;;;;;;;;;;;;4.63;92.80;97794.22;4995453;28;20403;-77
2021/12/15 04:18:06;;;;;;;;;;;;;;;4.63;92.93;97789.03;4995501;28;19985;-77
2021/12/15 04:20:34;;;;;;;;;;;;;;;4.66;93.19;97796.53;4995200;28;19963;-77
2021/12/15 04:23:00;;;;;;;;;;;;;;;4.68;93.62;97799.81;4995038;28;20471;-77
2021/12/15 04:25:29;;;;;;;;;;;;;;;4.72;93.60;97800.31;4995186;28;19957;-77
2021/12/15 04:28:02;;;;;;;;;;;;;;;4.74;92.50;97795.78;4994936;28;19951;-77
2021/12/15 04:30:28;;;;;;;;;;;;;;;4.73;92.10;97793.34;4995025;28;19951;-77
2021/12/15 04:32:56;;;;;;;;;;;;;;;4.67;91.33;97795.56;4994737;28;20009;-76
2021/12/15 04:35:22;;;;;;;;;;;;;;;4.59;91.64;97797.25;4994940;28;19960;-77
2021/12/15 04:37:49;;;;;;;;;;;;;;;4.53;92.11;97803.03;4995370;28;20009;-77
2021/12/15 04:40:16;;;;;;;;;;;;;;;4.47;92.70;97794.03;4994713;28;19959;-76
2021/12/15 04:42:43;;;;;;;;;;;;;;;4.46;92.80;97805.41;4994719;28;19962;-77
2021/12/15 04:45:14;;;;;;;;;;;;;;;4.43;93.18;97806.53;4994897;28;20338;-75
2021/12/15 04:47:40;;;;;;;;;;;;;;;4.45;93.41;97807.19;4994839;28;19956;-76
2021/12/15 04:50:07;;;;;;;;;;;;;;;4.46;93.19;97808.00;4994513;28;19970;-76
2021/12/15 04:52:33;;;;;;;;;;;;;;;4.48;93.13;97809.50;4994928;28;20423;-76
2021/12/15 04:54:59;;;;;;;;;;;;;;;4.52;92.89;97807.44;4994454;28;19963;-76
2021/12/15 04:57:26;;;;;;;;;;;;;;;4.54;92.87;97799.50;4994683;28;19956;-77
2021/12/15 04:59:53;;;;;;;;;;;;;;;4.57;93.37;97797.41;4994371;28;19964;-76
2021/12/15 05:02:20;;;;;;;;;;;;;;;4.59;92.72;97800.66;4994740;28;19963;-75
2021/12/15 05:04:46;;;;;;;;;;;;;;;4.59;92.12;97811.06;4994727;28;20306;-76
2021/12/15 05:07:13;;;;;;;;;;;;;;;4.58;92.26;97799.06;4994351;28;19959;-76
2021/12/15 05:09:40;;;;;;;;;;;;;;;4.57;91.87;97796.59;4994353;28;20027;-75
2021/12/15 05:12:06;;;;;;;;;;;;;;;4.56;91.42;97803.56;4994332;28;19958;-77
2021/12/15 05:14:33;;;;;;;;;;;;;;;4.54;91.49;97809.88;4994160;28;19969;-76
2021/12/15 05:16:58;;;;;;;;;;;;;;;4.47;90.81;97810.47;4994281;28;19969;-77
2021/12/15 05:19:26;;;;;;;;;;;;;;;4.41;91.25;97807.59;4993378;28;19980;-75
2021/12/15 05:21:54;;;;;;;;;;;;;;;4.40;91.90;97806.78;4994441;28;20307;-77
2021/12/15 05:24:30;;;;;;;;;;;;;;;4.45;92.46;97808.94;4994493;28;19971;-77
2021/12/15 05:26:57;;;;;;;;;;;;;;;4.52;92.30;97811.81;4994066;28;20342;-77
2021/12/15 05:29:23;;;;;;;;;;;;;;;4.55;92.34;97811.50;4994129;28;19976;-77
2021/12/15 05:31:49;;;;;;;;;;;;;;;4.59;92.42;97818.06;4994020;28;19959;-77
2021/12/15 05:34:15;;;;;;;;;;;;;;;4.63;92.25;97816.78;4994298;28;20392;-76
2021/12/15 05:36:42;;;;;;;;;;;;;;;4.66;91.91;97822.53;4993975;28;19955;-76
2021/12/15 05:39:08;;;;;;;;;;;;;;;4.69;91.89;97821.41;4994390;28;19959;-76
2021/12/15 05:41:34;;;;;;;;;;;;;;;4.72;91.77;97821.09;4993745;28;19953;-76
2021/12/15 05:44:02;;;;;;;;;;;;;;;4.75;91.67;97833.00;4993904;28;19979;-75
2021/12/15 05:46:28;;;;;;;;;;;;;;;4.76;91.40;97826.84;4994053;28;19947;-74
2021/12/15 05:48:53;;;;;;;;;;;;;;;4.76;90.96;97832.03;4993917;28;19979;-75
2021/12/15 05:51:19;;;;;;;;;;;;;;;4.74;90.15;97831.34;4994003;28;20043;-74
2021/12/15 05:53:46;;;;;;;;;;;;;;;4.70;90.62;97833.41;4976625;28;19998;-75
2021/12/15 05:56:13;;;;;;;;;;;;;;;4.71;90.62;97835.06;4993790;28;19964;-75
2021/12/15 05:58:42;;;;;;;;;;;;;;;4.74;90.78;97831.34;4993960;28;20420;-75
2021/12/15 06:01:08;;;;;;;;;;;;;;;4.74;90.74;97829.56;4994208;28;19953;-76
2021/12/15 06:03:34;;;;;;;;;;;;;;;4.72;90.95;97836.69;4995827;28;19965;-76
2021/12/15 06:06:00;;;;;;;;;;;;;;;4.70;90.86;97832.63;4980461;28;19958;-76
2021/12/15 06:08:26;;;;;;;;;;;;;;;4.64;90.29;97837.44;4980587;28;19953;-76
2021/12/15 06:10:52;;;;;;;;;;;;;;;4.49;89.80;97841.47;4997343;28;19967;-76
2021/12/15 06:13:22;;;;;;;;;;;;;;;4.37;90.05;97838.28;4997876;28;19952;-77
2021/12/15 06:15:49;;;;;;;;;;;;;;;4.24;90.87;97846.41;4997691;28;19970;-77
2021/12/15 06:18:17;;;;;;;;;;;;;;;4.21;91.51;97838.06;4997384;28;20423;-78
2021/12/15 06:20:44;;;;;;;;;;;;;;;4.22;92.19;97845.72;4980195;28;19966;-77
2021/12/15 06:23:17;;;;;;;;;;;;;;;4.29;92.37;97839.97;4980001;28;19968;-77
2021/12/15 06:25:46;;;;;;;;;;;;;;;4.34;92.48;97835.94;4996714;28;21424;-78
2021/12/15 06:28:13;;;;;;;;;;;;;;;4.39;92.50;97841.53;4979710;28;19975;-77
2021/12/15 06:30:39;;;;;;;;;;;;;;;4.40;92.11;97844.94;4997506;28;20429;-77
2021/12/15 06:33:05;;;;;;;;;;;;;;;4.44;92.30;97848.91;4997217;28;19956;-80
2021/12/15 06:35:32;;;;;;;;;;;;;;;4.47;92.42;97848.59;4997214;28;19957;-79
2021/12/15 06:37:57;;;;;;;;;;;;;;;4.50;92.39;97848.31;4997149;28;19964;-78
2021/12/15 06:40:24;;;;;;;;;;;;;;;4.53;92.39;97852.41;4997102;28;20008;-77
2021/12/15 06:42:49;;;;;;;;;;;;;;;4.56;92.38;97862.53;4997019;28;19970;-75
2021/12/15 06:45:19;;;;;;;;;;;;;;;4.56;92.44;97858.13;4996239;28;19961;-75
2021/12/15 06:58:49;;;;;;;;;;;;;;;4.55;91.92;97864.28;4997023;28;19973;-75
2021/12/15 07:01:15;;;;;;;;;;;;;;;4.55;92.18;97861.69;4996609;28;19953;-75
2021/12/15 07:03:41;;;;;;;;;;;;;;;4.57;92.29;97864.94;4996620;28;20344;-75
2021/12/15 07:06:07;;;;;;;;;;;;;;;4.59;92.26;97872.63;4997009;28;19958;-74
2021/12/15 07:08:33;;;;;;;;;;;;;;;4.61;92.15;97868.09;4996541;28;19953;-75
2021/12/15 07:11:00;;;;;;;;;;;;;;;4.61;91.97;97871.50;4996472;28;19968;-75
2021/12/15 07:13:27;;;;;;;;;;;;;;;4.62;91.73;97875.75;4996685;28;19958;-75
2021/12/15 07:15:59;;;;;;;;;;;;;;;4.60;91.93;97880.28;4996383;28;19959;-75
2021/12/15 07:18:38;;;;;;;;;;;;;;;4.59;91.84;97881.22;4996274;28;20345;-76
2021/12/15 07:21:11;;;;;;;;;;;;;;;4.59;91.95;97883.00;4996330;28;19948;-75
2021/12/15 07:23:37;;;;;;;;;;;;;;;4.59;91.94;97894.22;4996438;28;19972;-76
2021/12/15 07:26:04;;;;;;;;;;;;;;;4.61;91.58;97894.88;4978802;28;19954;-75
2021/12/15 07:28:30;;;;;;;;;;;;;;;4.57;91.30;97903.94;4996408;28;19979;-75
2021/12/15 07:30:56;;;;;;;;;;;;;;;4.53;91.85;97907.78;4996752;28;19958;-75
2021/12/15 07:33:22;;;;;;;;;;;;;;;4.52;92.12;97907.94;4995977;28;20432;-76
2021/12/15 07:35:48;;;;;;;;;;;;;;;4.48;92.19;97910.81;4996572;28;19958;-75
2021/12/15 07:38:14;;;;;;;;;;;;;;;4.47;92.30;97922.16;4996171;28;20021;-75
2021/12/15 07:40:40;;;;;;;;;;;;;;;4.49;92.17;97909.00;4995846;28;19970;-75
2021/12/15 07:43:13;;;;;;;;;;;;;;;4.51;91.96;97919.28;4995982;28;19954;-75
2021/12/15 07:45:44;;;;;;;;;;;;;;;4.41;90.78;97924.50;4996409;28;20418;-75
2021/12/15 07:48:11;;;;;;;;;;;;;;;4.30;91.17;97924.69;4995874;28;19963;-75
2021/12/15 07:50:38;;;;;;;;;;;;;;;4.23;91.60;97925.25;4995627;28;20428;-75
2021/12/15 07:53:04;;;;;;;;;;;;;;;4.21;92.40;97924.56;4996272;28;20405;-75
2021/12/15 07:55:30;;;;;;;;;;;;;;;4.23;92.87;97927.03;4996147;28;19947;-75
2021/12/15 07:57:56;;;;;;;;;;;;;;;4.27;92.71;97923.19;4978311;28;19954;-75
2021/12/15 08:00:23;;;;;;;;;;;;;;;4.29;92.08;97934.25;4995692;28;19964;-75
2021/12/15 08:02:49;;;;;;;;;;;;;;;4.34;94.38;97937.25;4995692;28;20395;-75
2021/12/15 08:05:15;;;;;;;;;;;;;;;4.41;92.25;97930.53;4995688;28;20368;-75
2021/12/15 08:07:43;;;;;;;;;;;;;;;4.39;90.87;97929.84;4995812;28;19968;-75
2021/12/15 08:10:10;;;;;;;;;;;;;;;4.35;90.69;97938.06;4978418;28;19963;-75
2021/12/15 08:12:38;;;;;;;;;;;;;;;4.30;90.87;97942.84;4995368;28;19978;-75
2021/12/15 08:15:07;;;;;;;;;;;;;;;4.24;91.09;97949.44;4995423;28;19955;-75
2021/12/15 08:17:33;;;;;;;;;;;;;;;4.18;91.58;97945.63;4994964;28;19999;-75
2021/12/15 08:19:59;;;;;;;;;;;;;;;4.16;91.95;97949.31;4995252;28;20433;-75
2021/12/15 08:22:25;;;;;;;;;;;;;;;4.16;92.30;97947.56;4995774;28;19956;-74
2021/12/15 08:24:51;;;;;;;;;;;;;;;4.17;91.90;97943.97;4994102;28;19977;-75
2021/12/15 08:27:17;;;;;;;;;;;;;;;4.17;91.73;97945.75;4994935;28;19957;-75
2021/12/15 08:29:43;;;;;;;;;;;;;;;4.18;92.00;97945.63;4995313;28;20325;-75
2021/12/15 08:32:09;;;;;;;;;;;;;;;4.20;91.89;97950.66;4995332;28;19953;-75
2021/12/15 08:34:35;;;;;;;;;;;;;;;4.18;91.94;97944.78;4995017;28;19982;-74
2021/12/15 08:37:01;;;;;;;;;;;;;;;4.19;92.35;97944.66;4995424;28;19947;-75
2021/12/15 08:39:27;;;;;;;;;;;;;;;4.24;92.54;97946.81;4995046;28;19954;-75
2021/12/15 08:41:53;;;;;;;;;;;;;;;4.30;92.43;97953.25;4977411;28;19998;-75
2021/12/15 08:44:19;;;;;;;;;;;;;;;4.30;92.30;97950.66;4995075;28;19995;-75
2021/12/15 08:46:47;;;;;;;;;;;;;;;4.27;92.04;97954.34;4994964;28;19968;-75
2021/12/15 08:49:16;;;;;;;;;;;;;;;4.22;92.30;97951.34;4994787;28;20440;-75
2021/12/15 08:51:43;;;;;;;;;;;;;;;4.20;92.50;97964.50;4995402;28;19957;-75
2021/12/15 08:54:14;;;;;;;;;;;;;;;4.20;92.78;97958.44;4994893;28;20027;-75
2021/12/15 08:56:41;;;;;;;;;;;;;;;4.16;92.89;97962.28;4995107;28;19971;-74
2021/12/15 08:59:08;;;;;;;;;;;;;;;4.14;93.56;97966.84;4994724;28;19953;-75
2021/12/15 09:01:34;;;;;;;;;;;;;;;4.13;93.45;97963.41;4994590;28;19953;-75
2021/12/15 09:04:00;;;;;;;;;;;;;;;4.15;93.59;97960.66;4994637;28;19975;-75
2021/12/15 09:06:26;;;;;;;;;;;;;;;4.17;93.45;97963.94;4994827;28;20443;-74
2021/12/15 09:08:52;;;;;;;;;;;;;;;4.21;93.51;97958.31;4977277;28;19961;-74
2021/12/15 09:11:20;;;;;;;;;;;;;;;4.22;93.03;97967.78;4994281;28;19951;-74
2021/12/15 09:13:49;;;;;;;;;;;;;;;4.31;100.00;97960.09;4994372;28;19961;-74
2021/12/15 09:16:16;;;;;;;;;;;;;;;4.79;100.00;97957.31;4994444;28;20416;-75
2021/12/15 09:18:43;;;;;;;;;;;;;;;5.45;100.00;97955.44;4986758;28;19984;-76
2021/12/15 09:21:10;;;;;;;;;;;;;;;5.78;92.22;97951.34;4994346;28;19966;-75
2021/12/15 09:23:37;;;;;;;;;;;;;;;5.69;89.71;97962.63;4994227;28;19956;-75
2021/12/15 09:26:03;;;;;;;;;;;;;;;5.48;87.56;97966.38;4994212;28;19962;-75
2021/12/15 09:28:32;;;;;;;;;;;;;;;5.26;87.88;97965.00;4993900;28;20001;-76
2021/12/15 09:31:01;;;;;;;;;;;;;;;5.00;88.58;97964.06;4994191;28;19959;-75
2021/12/15 09:33:31;;;;;;;;;;;;;;;4.83;89.56;97970.81;4994204;28;19955;-74
2021/12/15 09:35:58;;;;;;;;;;;;;;;4.76;90.55;97974.97;4994146;28;19948;-75
2021/12/15 09:38:24;;;;;;;;;;;;;;;4.74;90.66;97974.31;4993512;28;19958;-75
2021/12/15 09:40:52;;;;;;;;;;;;;;;4.72;91.24;97977.03;4963352;28;19961;-76
2021/12/15 09:43:19;;;;;;;;;;;;;;;4.71;90.67;97977.19;4994147;28;20409;-75
2021/12/15 09:45:51;;;;;;;;;;;;;;;4.71;90.94;97983.19;4992762;28;19976;-75
2021/12/15 10:05:00;;;;;;;;;;;;;;;4.17;91.83;97982.94;4967948;28;19971;-75
2021/12/15 10:18:17;;;;;;;;;;;;;;;4.54;91.30;97984.78;4993904;28;19978;-75
2021/12/15 10:20:43;;;;;;;;;;;;;;;4.95;98.76;97974.06;4993623;28;19978;-75
2021/12/15 10:23:13;;;;;;;;;;;;;;;5.07;89.54;97971.13;4976480;28;20411;-74
2021/12/15 10:25:45;;;;;;;;;;;;;;;4.99;88.42;97965.03;4993562;28;20937;-75
2021/12/15 10:28:15;;;;;;;;;;;;;;;4.76;87.72;97965.38;4977060;28;20333;-75
2021/12/15 10:30:44;;;;;;;;;;;;;;;4.56;88.30;97967.25;4993824;28;19960;-75
2021/12/15 10:33:23;;;;;;;;;;;;;;;4.33;89.28;97968.56;4993735;28;19959;-74
2021/12/15 10:35:58;;;;;;;;;;;;;;;4.15;89.56;97974.47;4994058;28;19963;-74
2021/12/15 10:38:31;;;;;;;;;;;;;;;4.09;89.79;97972.41;4993805;28;19950;-76
2021/12/15 10:40:57;;;;;;;;;;;;;;;4.09;90.24;97971.59;4993696;28;19950;-75
2021/12/15 10:43:24;;;;;;;;;;;;;;;4.12;90.95;97969.56;4993475;28;20434;-76
2021/12/15 10:45:56;;;;;;;;;;;;;;;4.20;90.77;97961.06;4993354;28;19972;-76
2021/12/15 10:48:34;;;;;;;;;;;;;;;4.29;90.21;97964.59;4994255;28;19967;-76
2021/12/15 10:51:03;;;;;;;;;;;;;;;4.37;90.50;97970.72;4997217;28;20397;-78
2021/12/15 10:53:31;;;;;;;;;;;;;;;4.91;100.00;97960.53;4997039;28;19945;-76
2021/12/15 10:55:57;;;;;;;;;;;;;;;5.69;98.29;97962.63;4997054;28;20340;-77
2021/12/15 10:58:32;;;;;;;;;;;;;;;6.08;84.00;97959.72;4997093;28;19968;-76
2021/12/15 11:00:59;;;;;;;;;;;;;;;5.79;82.96;97963.38;4987868;28;20332;-76
2021/12/15 11:03:33;;;;;;;;;;;;;;;5.52;84.89;97958.25;4996557;28;19955;-73
2021/12/15 11:05:59;;;;;;;;;;;;;;;5.33;85.78;97960.00;4996727;28;20047;-75
2021/12/15 11:08:26;;;;;;;;;;;;;;;5.19;85.22;97957.94;4996437;28;19957;-76
2021/12/15 11:10:54;;;;;;;;;;;;;;;4.90;85.95;97953.72;4996468;28;20872;-75
2021/12/15 11:13:20;;;;;;;;;;;;;;;4.77;86.99;97956.66;4996594;28;19971;-76
2021/12/15 11:15:47;;;;;;;;;;;;;;;4.72;87.61;97956.25;4996920;28;19965;-76
2021/12/15 11:18:16;;;;;;;;;;;;;;;4.67;87.84;97951.47;4996088;28;19980;-76
2021/12/15 11:20:47;;;;;;;;;;;;;;;4.64;87.57;97949.19;4995875;28;19964;-75
2021/12/15 11:23:16;;;;;;;;;;;;;;;4.64;87.49;97951.78;4996068;28;19964;-77
2021/12/15 11:25:44;;;;;;;;;;;;;;;4.60;87.80;97944.38;4996210;28;19973;-75
2021/12/15 11:28:22;;;;;;;;;;;;;;;4.55;87.44;97936.22;4996077;28;19963;-75
2021/12/15 11:30:51;;;;;;;;;;;;;;;4.39;86.57;97935.06;4996010;28;19958;-76
2021/12/15 11:33:17;;;;;;;;;;;;;;;4.26;87.47;97948.34;4996228;28;20321;-75
2021/12/15 11:35:45;;;;;;;;;;;;;;;4.25;87.98;97943.28;4995783;28;19957;-75
2021/12/15 11:38:14;;;;;;;;;;;;;;;4.18;87.75;97944.78;4996794;28;19961;-75
2021/12/15 11:40:49;;;;;;;;;;;;;;;4.17;88.59;97946.56;4996031;28;19958;-75
2021/12/15 11:43:47;;;;;;;;;;;;;;;4.21;89.46;97942.75;4978609;28;19956;-75
2021/12/15 11:46:23;;;;;;;;;;;;;;;4.31;89.17;97939.31;4958852;28;20439;-75
2021/12/15 11:48:54;;;;;;;;;;;;;;;4.36;88.85;97935.31;4988870;28;20319;-75
2021/12/15 11:51:31;;;;;;;;;;;;;;;4.41;88.97;97933.13;4995964;28;19965;-76
2021/12/15 11:53:58;;;;;;;;;;;;;;;4.34;87.14;97937.25;4978635;28;19958;-75
2021/12/15 11:56:26;;;;;;;;;;;;;;;4.26;87.81;97924.97;4995645;28;19966;-75
2021/12/15 11:58:55;;;;;;;;;;;;;;;4.20;86.76;97930.72;4995777;28;19964;-75
2021/12/15 12:01:59;;;;;;;;;;;;;;;4.15;87.90;97927.72;4994616;28;19960;-75
2021/12/15 12:04:29;;;;;;;;;;;;;;;4.18;89.02;97926.63;4929034;29;19973;-75
2021/12/15 12:07:08;;;;;;;;;;;;;;;4.19;89.17;97921.28;4919697;29;20460;-77
2021/12/15 12:09:37;;;;;;;;;;;;;;;4.24;89.37;97915.66;4958853;28;20406;-75
2021/12/15 12:12:05;;;;;;;;;;;;;;;4.29;89.23;97921.28;4995358;28;19963;-75
2021/12/15 12:14:49;;;;;;;;;;;;;;;4.33;89.24;97912.25;4995347;28;19956;-75
2021/12/15 12:17:17;;;;;;;;;;;;;;;4.37;88.63;97912.78;4995318;28;20034;-76
2021/12/15 12:19:45;;;;;;;;;;;;;;;4.38;88.77;97914.41;4993904;28;19964;-76
2021/12/15 12:22:12;;;;;;;;;;;;;;;4.39;88.51;97910.84;4994994;28;19957;-75
2021/12/15 12:24:39;;;;;;;;;;;;;;;4.42;87.78;97906.19;4994858;28;19981;-75
2021/12/15 12:27:06;;;;;;;;;;;;;;;4.42;87.41;97907.97;4994798;28;19995;-75
2021/12/15 12:29:32;;;;;;;;;;;;;;;4.37;87.45;97903.19;4994837;28;19958;-75
2021/12/15 12:31:58;;;;;;;;;;;;;;;4.32;87.48;97902.78;4994620;28;19964;-75
2021/12/15 12:34:24;;;;;;;;;;;;;;;4.28;87.93;97901.44;4994975;28;19965;-75
2021/12/15 12:36:52;;;;;;;;;;;;;;;4.31;88.60;97901.19;4994861;28;20318;-76
2021/12/15 12:39:21;;;;;;;;;;;;;;;4.24;87.42;97902.69;4994823;28;19956;-75
2021/12/15 12:41:49;;;;;;;;;;;;;;;4.11;88.07;97902.19;4994583;28;19960;-75
2021/12/15 12:44:15;;;;;;;;;;;;;;;4.00;88.49;97908.38;4994774;28;19960;-75
2021/12/15 12:46:53;;;;;;;;;;;;;;;3.93;88.64;97905.50;4994307;28;19962;-75
2021/12/15 13:00:08;;;;;;;;;;;;;;;3.93;88.66;97902.91;4994455;28;20401;-75
2021/12/15 13:02:41;;;;;;;;;;;;;;;3.97;88.99;97906.03;4994375;28;19955;-75
2021/12/15 13:05:25;;;;;;;;;;;;;;;3.92;88.71;97905.66;4994516;28;19975;-76
2021/12/15 13:07:53;;;;;;;;;;;;;;;3.87;88.66;97903.47;4994859;28;20295;-75
2021/12/15 13:10:21;;;;;;;;;;;;;;;3.81;88.26;97904.84;4994203;28;19956;-75
2021/12/15 13:12:47;;;;;;;;;;;;;;;3.82;88.70;97900.47;4993984;28;19962;-74
2021/12/15 13:15:21;;;;;;;;;;;;;;;3.76;88.46;97894.06;4994350;28;19970;-75
2021/12/15 13:18:00;;;;;;;;;;;;;;;3.72;88.96;97894.50;4994102;28;20459;-75
2021/12/15 13:20:27;;;;;;;;;;;;;;;3.68;88.65;97898.31;4994559;28;19960;-77
2021/12/15 13:23:09;;;;;;;;;;;;;;;3.61;89.27;97903.22;4994702;28;20321;-75
2021/12/15 13:28:48;;;;;;;;;;;;;;;3.69;89.52;97890.38;4994308;28;19954;-74
2021/12/15 13:31:15;;;;;;;;;;;;;;;3.78;89.69;97889.56;4994010;28;19957;-75
2021/12/15 13:33:47;;;;;;;;;;;;;;;3.89;89.44;97895.56;4994033;28;19961;-75
2021/12/15 13:36:13;;;;;;;;;;;;;;;3.99;89.42;97889.38;4994129;28;19960;-75
2021/12/15 13:38:53;;;;;;;;;;;;;;;4.07;89.22;97883.47;4993898;28;20043;-75
2021/12/15 13:41:48;;;;;;;;;;;;;;;4.13;87.83;97890.69;4977044;28;20300;-75
2021/12/15 13:44:44;;;;;;;;;;;;;;;4.00;86.92;97887.59;4986711;28;19969;-75
2021/12/15 13:47:09;;;;;;;;;;;;;;;3.86;87.12;97891.44;4993606;28;20311;-75
2021/12/15 13:49:44;;;;;;;;;;;;;;;3.79;87.95;97896.38;4994203;28;20439;-75
2021/12/15 13:52:28;;;;;;;;;;;;;;;3.81;88.28;97894.47;4994120;28;19970;-75
2021/12/15 13:54:58;;;;;;;;;;;;;;;3.78;88.56;97893.91;4978422;28;19956;-75
2021/12/15 13:57:31;;;;;;;;;;;;;;;3.80;89.11;97884.22;4994047;28;19955;-74
2021/12/15 14:00:01;;;;;;;;;;;;;;;3.86;88.88;97892.28;4993740;28;19950;-74
2021/12/15 14:02:31;;;;;;;;;;;;;;;3.88;87.84;97886.94;4994194;28;19958;-75
2021/12/15 14:04:57;;;;;;;;;;;;;;;3.86;87.83;97892.28;4993698;28;20023;-75
2021/12/15 14:07:38;;;;;;;;;;;;;;;3.85;87.93;97893.22;4993723;28;20457;-75
2021/12/15 14:10:11;;;;;;;;;;;;;;;3.80;87.56;97892.84;4993800;28;20331;-75
2021/12/15 14:12:46;;;;;;;;;;;;;;;3.78;87.92;97893.91;4993636;28;19957;-74
2021/12/15 14:15:11;;;;;;;;;;;;;;;3.71;87.58;97898.03;4993544;28;20424;-75
2021/12/15 14:17:37;;;;;;;;;;;;;;;3.64;88.11;97890.00;4993425;28;20017;-74
2021/12/15 14:20:11;;;;;;;;;;;;;;;3.60;88.12;97897.22;4993617;28;19964;-75
2021/12/15 14:22:37;;;;;;;;;;;;;;;3.60;90.25;97896.41;4993589;28;19958;-73
2021/12/15 14:25:04;;;;;;;;;;;;;;;4.26;100.00;97891.22;4996250;28;20335;-74
2021/12/15 14:27:30;;;;;;;;;;;;;;;5.15;100.00;97899.38;4997385;28;19981;-74